Time;durP1;ratioP1;P1;durP2;ratioP2;P2;SDS_P1;SDS_P2;PMS_P1;PMS_P2;Temp;Humidity;BMP_temperature;BMP_pressure;BME280_temperature;BME280_humidity;BME280_pressure;Samples;Min_cycle;Max_cycle;Signal;HPM_P1;HPM_P2
2022/06/14 00:02:29;;;;;;;11.32;6.28;;;;;;;10.84;95.74;67977.84;4990794;28;20053;-86
2022/06/14 00:04:54;;;;;;;9.23;5.75;;;;;;;10.80;95.92;67973.88;4994969;28;20038;-86
2022/06/14 00:07:19;;;;;;;8.35;5.30;;;;;;;;;;4994040;28;20046;-86
2022/06/14 00:09:45;;;;;;;8.68;5.47;;;;;;;10.75;96.00;67968.19;4992631;28;20409;-87
2022/06/14 00:12:12;;;;;;;11.15;5.72;;;;;;;10.72;96.33;67964.22;4971404;28;20126;-86
2022/06/14 00:14:38;;;;;;;9.02;5.45;;;;;;;10.66;95.60;67960.06;4989154;28;20154;-86
2022/06/14 00:17:04;;;;;;;11.43;5.68;;;;;;;10.64;96.60;67955.13;4971313;28;20575;-86
2022/06/14 00:19:29;;;;;;;10.85;6.43;;;;;;;10.57;97.00;67947.75;4988455;28;20047;-86
2022/06/14 00:21:56;;;;;;;10.25;5.47;;;;;;;10.51;96.61;67941.53;4986823;28;20042;-86
2022/06/14 00:24:22;;;;;;;8.27;5.22;;;;;;;;;;4985774;28;20125;-86
2022/06/14 00:26:47;;;;;;;11.43;5.25;;;;;;;10.48;96.22;67938.13;4986753;28;20150;-87
2022/06/14 00:29:13;;;;;;;11.13;5.13;;;;;;;;;;5003619;28;20057;-87
2022/06/14 00:31:38;;;;;;;6.88;4.85;;;;;;;10.48;96.84;67940.78;4969966;28;20046;-87
2022/06/14 00:34:03;;;;;;;10.57;5.50;;;;;;;10.46;96.37;67938.50;4987343;28;20556;-87
2022/06/14 00:36:34;;;;;;;9.25;5.45;;;;;;;10.44;96.14;67933.00;4988490;28;20038;-87
2022/06/14 00:39:04;;;;;;;10.23;5.43;;;;;;;10.42;95.99;67931.31;4967260;28;20679;-87
2022/06/14 00:41:37;;;;;;;9.27;5.78;;;;;;;10.36;96.13;67927.16;4981794;28;20039;-86
2022/06/14 00:44:04;;;;;;;11.02;5.47;;;;;;;;;;4991896;28;20038;-86
2022/06/14 00:46:39;;;;;;;9.90;6.35;;;;;;;10.34;97.34;67922.22;4987486;28;20070;-86
2022/06/14 00:49:17;;;;;;;10.90;6.10;;;;;;;10.31;97.19;67919.41;4986468;28;20049;-86
2022/06/14 00:52:08;;;;;;;10.30;5.93;;;;;;;10.25;97.15;67915.22;5003560;28;20038;-86
2022/06/14 00:54:41;;;;;;;11.95;5.47;;;;;;;10.22;96.24;67908.59;4987476;28;20046;-86
2022/06/14 00:57:18;;;;;;;9.20;5.60;;;;;;;;;;4979825;28;20049;-86
2022/06/14 01:00:05;;;;;;;10.60;5.47;;;;;;;10.17;96.60;67898.16;4976802;28;20091;-86
2022/06/14 01:02:37;;;;;;;9.32;5.40;;;;;;;10.20;96.74;67909.56;4983398;28;20047;-86
2022/06/14 01:05:08;;;;;;;11.80;6.57;;;;;;;10.16;97.07;67908.25;4978777;28;20552;-86
2022/06/14 01:07:51;;;;;;;11.48;6.07;;;;;;;10.14;97.61;67900.66;4976535;28;20033;-86
2022/06/14 01:10:30;;;;;;;13.32;7.30;;;;;;;;;;4980240;28;20130;-86
2022/06/14 01:13:01;;;;;;;9.82;6.30;;;;;;;10.12;97.58;67898.38;4966891;28;20046;-86
2022/06/14 01:15:31;;;;;;;12.52;6.38;;;;;;;10.09;98.23;67894.97;4987702;28;20049;-86
2022/06/14 01:18:02;;;;;;;8.13;6.18;;;;;;;10.11;98.24;67896.69;4985409;28;20108;-85
2022/06/14 01:20:28;;;;;;;9.98;6.18;;;;;;;10.05;98.07;67895.75;5002430;28;20673;-85
2022/06/14 01:22:54;;;;;;;13.43;6.38;;;;;;;9.99;98.09;67883.66;4977110;28;20034;-86
2022/06/14 01:25:21;;;;;;;13.00;7.18;;;;;;;9.97;98.25;67881.38;4969789;28;20034;-86
2022/06/14 01:27:46;;;;;;;11.18;6.20;;;;;;;9.96;98.54;67885.56;4969576;28;20053;-86
2022/06/14 01:30:22;;;;;;;10.82;6.57;;;;;;;9.88;99.11;67871.16;4984867;28;20054;-86
2022/06/14 01:33:00;;;;;;;10.75;6.32;;;;;;;9.85;98.55;67867.75;4973692;28;20073;-85
2022/06/14 01:35:28;;;;;;;10.63;5.90;;;;;;;9.85;98.44;67867.75;4957494;28;20042;-85
2022/06/14 01:37:56;;;;;;;9.05;5.75;;;;;;;9.83;98.34;67865.50;4969525;28;20042;-86
2022/06/14 01:40:49;;;;;;;11.93;6.40;;;;;;;9.79;97.89;67860.97;4985488;28;20062;-85
2022/06/14 01:43:15;;;;;;;11.50;6.75;;;;;;;;;;4983607;28;20042;-86
2022/06/14 01:46:02;;;;;;;12.07;7.03;;;;;;;9.74;99.79;67860.59;4987157;28;20034;-85
2022/06/14 01:48:44;;;;;;;12.23;7.18;;;;;;;9.70;99.25;67851.31;4978225;28;20557;-85
2022/06/14 01:51:52;;;;;;;12.77;7.82;;;;;;;9.61;99.82;67841.69;4967620;28;20122;-85
2022/06/14 01:54:31;;;;;;;12.43;7.47;;;;;;;9.59;100.00;67839.41;4964069;28;20067;-86
2022/06/14 01:57:15;;;;;;;13.35;7.40;;;;;;;;;;4980925;28;20035;-86
2022/06/14 01:59:45;;;;;;;10.10;6.82;;;;;;;9.55;100.00;67836.97;4967922;28;20440;-86
2022/06/14 02:02:28;;;;;;;10.95;7.35;;;;;;;9.50;99.79;67831.88;4965880;28;20502;-86
2022/06/14 02:05:12;;;;;;;15.35;7.55;;;;;;;9.42;100.00;67820.13;4967248;28;20545;-85
2022/06/14 02:07:45;;;;;;;11.05;7.07;;;;;;;;;;4966565;28;20078;-85
2022/06/14 02:10:32;;;;;;;9.27;6.40;;;;;;;9.44;100.00;67828.28;4953343;28;20510;-86
2022/06/14 02:13:19;;;;;;;11.05;7.15;;;;;;;9.43;100.00;67821.81;4969773;28;20043;-84
2022/06/14 02:15:51;;;;;;;12.75;7.32;;;;;;;9.42;100.00;67820.13;5013514;28;20029;-85
2022/06/14 02:18:35;;;;;;;11.07;6.50;;;;;;;9.40;100.00;67817.88;4989387;28;20042;-86
2022/06/14 02:21:11;;;;;;;9.27;6.50;;;;;;;9.36;99.77;67818.66;4988492;28;20050;-85
2022/06/14 02:23:45;;;;;;;11.38;6.72;;;;;;;9.33;99.78;67815.81;4990777;28;20050;-85
2022/06/14 02:26:17;;;;;;;11.35;6.28;;;;;;;9.35;99.53;67815.44;4989984;28;20370;-85
2022/06/14 02:29:04;;;;;;;9.15;6.30;;;;;;;9.29;99.49;67808.03;4990007;28;20042;-85
2022/06/14 02:31:58;;;;;;;8.80;6.57;;;;;;;9.22;100.00;67798.03;4988299;28;20121;-85
2022/06/14 02:34:29;;;;;;;11.02;7.25;;;;;;;9.21;100.00;67796.91;4984847;28;20057;-86
2022/06/14 02:37:09;;;;;;;12.13;7.90;;;;;;;9.11;100.00;67786.13;4971816;28;20133;-85
2022/06/14 02:39:51;;;;;;;10.30;6.85;;;;;;;9.07;100.00;67786.91;4957413;28;20418;-85
2022/06/14 02:42:30;;;;;;;14.35;7.60;;;;;;;9.02;100.00;67775.94;4996973;28;20061;-85
2022/06/14 02:45:03;;;;;;;14.90;7.90;;;;;;;9.03;100.00;67777.63;4989823;28;20042;-85
2022/06/14 02:47:44;;;;;;;13.23;7.97;;;;;;;9.04;100.00;67780.84;5005872;28;20069;-85
2022/06/14 02:50:13;;;;;;;13.00;7.43;;;;;;;9.00;100.00;67773.66;4992226;28;20042;-85
2022/06/14 02:52:45;;;;;;;10.80;7.45;;;;;;;8.95;100.00;67770.66;4987440;28;20050;-85
2022/06/14 02:55:14;;;;;;;11.45;7.50;;;;;;;8.91;100.00;67766.69;4989344;28;20042;-85
2022/06/14 02:58:00;;;;;;;10.90;7.70;;;;;;;;;;4990626;28;20062;-85
2022/06/14 03:00:34;;;;;;;11.38;7.40;;;;;;;8.91;100.00;67766.69;4988805;28;20042;-85
2022/06/14 03:03:03;;;;;;;14.88;7.95;;;;;;;8.88;100.00;67760.63;4990909;28;20045;-85
2022/06/14 03:05:43;;;;;;;12.85;8.23;;;;;;;8.84;100.00;67758.75;4997242;28;20049;-86
2022/06/14 03:08:13;;;;;;;13.65;7.88;;;;;;;8.79;100.00;67751.00;4968438;28;20517;-86
2022/06/14 03:10:47;;;;;;;11.25;7.43;;;;;;;8.78;100.00;67752.53;4969121;28;20165;-85
2022/06/14 03:13:43;;;;;;;13.30;7.90;;;;;;;8.71;100.00;67747.22;4986429;28;20066;-85
2022/06/14 03:16:40;;;;;;;12.57;8.25;;;;;;;8.72;100.00;67742.50;4982802;28;20046;-85
2022/06/14 03:19:35;;;;;;;11.00;7.57;;;;;;;8.69;100.00;67739.66;4986436;28;20065;-85
2022/06/14 03:22:48;;;;;;;10.40;7.68;;;;;;;8.65;100.00;67737.78;4969766;28;20544;-86
2022/06/14 03:25:29;;;;;;;13.05;8.40;;;;;;;8.59;100.00;67728.34;4985486;28;20093;-85
2022/06/14 03:28:01;;;;;;;11.25;8.23;;;;;;;8.55;100.00;67724.38;4987336;28;20038;-84
2022/06/14 03:30:35;;;;;;;12.77;8.55;;;;;;;8.55;100.00;67731.78;4991734;28;20078;-85
2022/06/14 03:33:04;;;;;;;12.27;8.10;;;;;;;8.55;100.00;67726.47;4987988;28;20066;-85
2022/06/14 03:35:31;;;;;;;15.55;9.00;;;;;;;8.56;100.00;67730.81;4994452;28;20042;-85
2022/06/14 03:38:02;;;;;;;12.77;8.70;;;;;;;8.54;100.00;67722.66;4991324;28;20056;-84
2022/06/14 03:40:27;;;;;;;10.00;8.02;;;;;;;8.52;100.00;67723.06;4990683;28;20069;-85
2022/06/14 03:42:53;;;;;;;12.07;8.57;;;;;;;8.49;100.00;67720.22;4988758;28;20081;-85
2022/06/14 03:45:32;;;;;;;12.07;8.15;;;;;;;8.48;100.00;67715.88;4993692;28;20127;-85
2022/06/14 03:47:57;;;;;;;;;;;;;;;8.49;100.00;67722.88;4993124;28;21344;-86
2022/06/14 03:50:35;;;;;;;12.80;8.82;;;;;;;8.34;100.00;67705.84;4990596;28;19993;-84
2022/06/14 03:53:17;;;;;;;13.27;9.07;;;;;;;8.33;100.00;67699.44;4993177;28;20073;-82
2022/06/14 03:55:54;;;;;;;14.65;9.55;;;;;;;8.36;100.00;67710.78;4996901;28;20042;-83
2022/06/14 03:58:40;;;;;;;12.00;9.23;;;;;;;8.39;100.00;67705.69;4996107;28;20120;-84
2022/06/14 04:01:05;;;;;;;13.88;9.80;;;;;;;8.41;100.00;67713.25;4999987;28;20052;-84
2022/06/14 04:04:01;;;;;;;13.27;8.82;;;;;;;8.40;100.00;67706.81;4996504;28;20476;-84
2022/06/14 04:06:42;;;;;;;10.75;8.23;;;;;;;8.40;100.00;67714.75;4990613;28;20042;-83
2022/06/14 04:09:34;;;;;;;16.33;9.50;;;;;;;8.43;100.00;67713.44;4989472;28;20046;-85
2022/06/14 04:12:21;;;;;;;14.50;9.55;;;;;;;8.38;100.00;67707.19;4987547;28;20046;-85
2022/06/14 04:15:11;;;;;;;15.95;10.15;;;;;;;8.38;100.00;67710.41;4989262;28;20053;-85
2022/06/14 04:17:39;;;;;;;15.85;10.02;;;;;;;;;;4980757;28;20525;-88
2022/06/14 04:20:22;;;;;;;17.77;9.93;;;;;;;;;;4984644;28;20069;-85
2022/06/14 04:23:20;;;;;;;14.95;9.90;;;;;;;8.46;100.00;67713.59;4992169;28;20081;-83
2022/06/14 04:25:57;;;;;;;16.05;10.98;;;;;;;8.50;100.00;67718.13;4943896;28;20043;-83
2022/06/14 04:28:52;;;;;;;19.65;11.05;;;;;;;8.51;100.00;67719.25;4988100;28;20030;-83
2022/06/14 04:31:50;;;;;;;16.73;11.13;;;;;;;8.51;100.00;67721.91;4984640;28;20078;-84
2022/06/14 04:34:41;;;;;;;14.70;11.33;;;;;;;8.57;100.00;67726.06;4988315;28;20112;-83
2022/06/14 04:37:15;;;;;;;20.13;11.07;;;;;;;8.57;100.00;67726.66;4998462;28;20323;-83
2022/06/14 04:39:50;;;;;;;15.82;11.32;;;;;;;;;;5004421;28;20046;-83
2022/06/14 04:42:40;;;;;;;15.73;10.90;;;;;;;8.77;100.00;67748.72;5000557;28;20058;-83
2022/06/14 04:45:18;;;;;;;15.95;10.77;;;;;;;8.88;100.00;67760.06;4994952;28;20050;-83
2022/06/14 04:48:08;;;;;;;13.57;10.27;;;;;;;8.90;100.00;67768.22;4994927;28;20497;-84
2022/06/14 04:50:46;;;;;;;16.35;10.45;;;;;;;8.96;100.00;67769.13;4999335;28;20046;-84
2022/06/14 04:53:16;;;;;;;14.70;9.88;;;;;;;9.02;100.00;67778.59;4974504;28;20045;-83
2022/06/14 04:55:48;;;;;;;15.70;10.45;;;;;;;9.12;100.00;67786.69;5008117;28;20045;-83
2022/06/14 04:58:31;;;;;;;16.90;11.02;;;;;;;9.20;100.00;67796.31;4995348;28;20395;-83
2022/06/14 05:00:58;;;;;;;15.60;10.70;;;;;;;;;;5004908;28;20157;-83
2022/06/14 05:03:27;;;;;;;15.20;10.95;;;;;;;9.32;100.00;67809.38;4995165;28;20053;-83
2022/06/14 05:05:58;;;;;;;16.13;11.07;;;;;;;9.44;100.00;67825.63;4992273;28;20042;-83
2022/06/14 05:08:23;;;;;;;15.98;11.55;;;;;;;;;;4987145;28;20042;-84
2022/06/14 05:10:56;;;;;;;16.43;10.57;;;;;;;9.58;100.00;67838.28;4994224;28;20552;-86
2022/06/14 05:13:32;;;;;;;15.57;11.10;;;;;;;9.70;100.00;67856.63;5002908;28;20291;-84
2022/06/14 05:16:06;;;;;;;15.07;10.20;;;;;;;9.82;100.00;67864.94;4992385;28;20043;-85
2022/06/14 05:18:37;;;;;;;17.60;10.63;;;;;;;9.91;100.00;67877.22;4993082;28;20038;-84
2022/06/14 05:21:41;;;;;;;15.60;10.00;;;;;;;10.02;100.00;67889.72;4983164;28;20050;-86
2022/06/14 05:24:08;;;;;;;19.77;10.85;;;;;;;10.11;100.00;67896.69;5002459;28;20062;-85
2022/06/14 05:26:36;;;;;;;19.77;9.23;;;;;;;10.25;100.00;67917.88;4974076;28;20515;-86
2022/06/14 05:29:27;;;;;;;13.73;9.38;;;;;;;10.42;98.82;67931.31;5008642;28;20038;-84
2022/06/14 05:32:13;;;;;;;14.32;9.30;;;;;;;10.52;98.55;67944.75;4996267;28;20045;-85
2022/06/14 05:35:06;;;;;;;13.15;8.27;;;;;;;10.66;97.83;67957.41;4975364;28;20042;-85
2022/06/14 05:37:37;;;;;;;14.35;8.25;;;;;;;;;;4984631;28;20049;-85
2022/06/14 05:40:14;;;;;;;13.55;8.18;;;;;;;10.87;97.12;67983.34;4974638;28;20521;-84
2022/06/14 05:42:51;;;;;;;14.80;8.43;;;;;;;;;;4995004;28;20429;-84
2022/06/14 05:45:18;;;;;;;15.13;7.72;;;;;;;11.13;96.83;68004.28;4995444;28;20047;-84
2022/06/14 05:47:50;;;;;;;16.30;7.38;;;;;;;11.17;95.78;68014.16;5000408;28;20038;-86
2022/06/14 05:50:25;;;;;;;14.25;7.03;;;;;;;11.25;94.98;68029.16;4981342;28;20065;-86
2022/06/14 05:53:23;;;;;;;11.70;6.30;;;;;;;11.33;94.07;68032.31;5006839;28;20041;-84
2022/06/14 05:55:55;;;;;;;11.13;5.97;;;;;;;11.43;92.84;68051.69;4955851;28;20045;-85
2022/06/14 05:58:35;;;;;;;18.13;6.97;;;;;;;11.62;93.29;68056.13;4998740;28;20040;-86
2022/06/14 06:01:11;;;;;;;10.93;5.90;;;;;;;11.67;92.16;68065.03;4989696;28;20176;-87
2022/06/14 06:03:52;;;;;;;8.88;5.68;;;;;;;;;;4989602;28;20100;-87
2022/06/14 06:06:21;;;;;;;14.05;5.38;;;;;;;;;;4983988;28;20126;-86
2022/06/14 06:09:05;;;;;;;;;;;;;;;11.93;91.58;68098.78;5006550;28;20386;-87
2022/06/14 06:11:39;;;;;;;14.13;5.30;;;;;;;11.91;90.83;68099.19;4987896;28;19925;-87
2022/06/14 06:14:08;;;;;;;13.75;6.60;;;;;;;;;;4982480;28;20053;-87
2022/06/14 06:19:23;;;;;;;11.65;5.43;;;;;;;12.30;90.97;68139.72;4985895;28;20057;-86
2022/06/14 06:22:11;;;;;;;13.82;5.82;;;;;;;12.37;89.85;68148.25;4996384;28;20042;-87
2022/06/14 06:24:51;;;;;;;13.07;5.25;;;;;;;;;;4995415;28;20042;-87
2022/06/14 06:27:22;;;;;;;15.05;6.07;;;;;;;12.56;89.90;68171.34;4970932;28;20049;-86
2022/06/14 06:30:03;;;;;;;16.17;5.68;;;;;;;12.67;90.28;68180.63;4982281;28;20073;-87
2022/06/14 06:32:31;;;;;;;13.00;5.70;;;;;;;12.79;88.90;68189.50;4994890;28;20570;-87
2022/06/14 06:35:00;;;;;;;14.80;5.75;;;;;;;12.80;88.24;68195.97;4973916;28;20125;-87
2022/06/14 06:37:31;;;;;;;10.60;4.53;;;;;;;12.82;86.68;68197.69;4971978;28;20127;-87
2022/06/14 06:40:23;;;;;;;9.90;3.25;;;;;;;12.93;85.38;68204.84;4973838;28;20038;-87
2022/06/14 06:42:55;;;;;;;15.00;4.68;;;;;;;;;;4968832;28;20050;-87
2022/06/14 06:45:39;;;;;;;12.93;5.93;;;;;;;;;;4995975;28;20505;-88
2022/06/14 06:48:07;;;;;;;8.02;2.85;;;;;;;;;;5004383;28;20043;-87
2022/06/14 06:50:43;;;;;;;12.23;3.58;;;;;;;13.35;83.49;68256.25;4989077;28;20049;-87
2022/06/14 06:53:14;;;;;;;12.73;3.88;;;;;;;13.38;82.52;68254.31;4985566;28;20142;-88
2022/06/14 06:56:04;;;;;;;12.10;3.78;;;;;;;13.34;82.90;68255.69;4989080;28;20049;-87
2022/06/14 06:58:34;;;;;;;9.73;3.17;;;;;;;13.38;81.24;68254.31;4989839;28;20053;-87
2022/06/14 07:01:27;;;;;;;11.18;3.15;;;;;;;13.48;81.57;68271.63;5001636;28;20065;-87
2022/06/14 07:07:17;;;;;;;10.70;4.00;;;;;;;13.64;82.07;68289.25;4980708;28;20045;-87
2022/06/14 07:09:50;;;;;;;11.52;4.50;;;;;;;13.62;81.06;68278.94;4989138;28;20050;-87
2022/06/14 07:12:44;;;;;;;8.52;3.08;;;;;;;13.75;80.20;68301.78;4970640;28;20065;-87
2022/06/14 07:15:14;;;;;;;8.30;2.80;;;;;;;;;;4978228;28;20050;-88
2022/06/14 07:18:26;;;;;;;9.60;2.08;;;;;;;13.80;76.61;68306.31;4979321;28;20680;-87
2022/06/14 07:21:10;;;;;;;8.80;2.10;;;;;;;;;;4938313;28;20054;-88
2022/06/14 07:23:53;;;;;;;8.63;2.47;;;;;;;14.02;76.60;68331.34;4986524;28;20050;-87
2022/06/14 07:26:23;;;;;;;9.75;2.83;;;;;;;;;;4972837;28;20047;-87
2022/06/14 07:28:58;;;;;;;10.07;2.67;;;;;;;;;;5002517;28;20038;-87
2022/06/14 07:31:37;;;;;;;11.52;2.92;;;;;;;14.47;76.94;68381.41;4987533;28;20043;-87
2022/06/14 07:34:04;;;;;;;10.35;2.05;;;;;;;14.50;75.22;68384.25;4987812;28;20049;-88
2022/06/14 07:36:46;;;;;;;5.78;2.58;;;;;;;14.45;74.50;68379.16;4972561;28;20057;-88
2022/06/14 07:39:20;;;;;;;8.23;2.60;;;;;;;14.53;75.20;68382.94;4990297;28;20042;-88
2022/06/14 07:42:02;;;;;;;9.77;2.72;;;;;;;14.67;73.79;68403.66;4969657;28;20042;-88
2022/06/14 07:44:30;;;;;;;6.00;2.28;;;;;;;;;;4985812;28;20149;-87
2022/06/14 07:47:23;;;;;;;7.00;2.30;;;;;;;14.34;73.43;68366.63;4987382;28;20044;-88
2022/06/14 07:50:02;;;;;;;8.27;2.40;;;;;;;14.25;73.89;68356.41;4969730;28;20050;-88
2022/06/14 07:52:47;;;;;;;7.72;2.25;;;;;;;14.39;73.42;68372.34;4971224;28;20409;-88
2022/06/14 07:55:27;;;;;;;9.63;2.38;;;;;;;14.62;73.32;68398.53;4989769;28;20492;-87
2022/06/14 07:57:58;;;;;;;11.25;3.17;;;;;;;14.77;71.53;68414.47;4981226;28;20046;-88
2022/06/14 08:03:31;;;;;;;9.60;2.47;;;;;;;15.00;70.02;68435.31;4984967;28;20073;-88
2022/06/14 08:05:58;;;;;;;8.20;2.25;;;;;;;;;;4988755;28;20050;-89
2022/06/14 08:08:26;;;;;;;7.20;2.00;;;;;;;;;;4971731;28;20046;-88
2022/06/14 08:10:54;;;;;;;8.73;2.78;;;;;;;;;;5003912;28;20073;-88
2022/06/14 08:13:27;;;;;;;7.88;2.63;;;;;;;15.24;70.17;68462.06;4970057;28;20046;-88
2022/06/14 08:15:55;;;;;;;9.15;2.53;;;;;;;;;;4988460;28;20686;-88
2022/06/14 08:18:36;;;;;;;9.00;2.40;;;;;;;15.15;69.41;68457.16;4987194;28;20046;-88
2022/06/14 08:21:15;;;;;;;7.85;2.22;;;;;;;15.01;69.67;68441.78;4983442;28;20061;-88
2022/06/14 08:23:51;;;;;;;9.05;2.50;;;;;;;14.94;70.64;68433.84;4988917;28;20125;-88
2022/06/14 08:26:35;;;;;;;7.00;2.70;;;;;;;;;;4978165;28;20600;-88
2022/06/14 08:29:13;;;;;;;5.38;1.98;;;;;;;;;;4985954;28;20042;-88
2022/06/14 08:31:42;;;;;;;7.82;2.40;;;;;;;;;;4970918;28;20596;-88
2022/06/14 08:34:13;;;;;;;5.78;1.95;;;;;;;;;;4987016;28;20089;-88
2022/06/14 08:36:52;;;;;;;7.45;2.35;;;;;;;14.69;70.27;68400.56;5003006;28;20497;-88
2022/06/14 08:39:31;;;;;;;7.35;2.53;;;;;;;15.10;69.90;68452.06;4968400;28;20564;-88
2022/06/14 08:42:14;;;;;;;6.30;1.92;;;;;;;15.45;69.37;68485.41;4987812;28;20517;-88
2022/06/14 08:44:47;;;;;;;6.57;2.60;;;;;;;15.70;69.95;68510.66;4968605;28;20042;-88
2022/06/14 08:47:28;;;;;;;8.73;2.05;;;;;;;;;;4967750;28;20034;-88
2022/06/14 08:50:09;;;;;;;6.00;2.10;;;;;;;15.60;68.08;68501.38;4983917;28;20046;-88
2022/06/14 08:52:47;;;;;;;9.52;2.70;;;;;;;15.51;68.62;68491.69;4969628;28;20057;-89
2022/06/14 08:55:28;;;;;;;6.63;2.30;;;;;;;15.30;68.74;68474.25;4969124;28;20126;-88
2022/06/14 08:58:12;;;;;;;8.02;2.50;;;;;;;15.25;69.42;68463.22;4999760;28;20045;-88
2022/06/14 09:00:49;;;;;;;6.70;2.38;;;;;;;;;;4986951;28;20128;-88
2022/06/14 09:03:33;;;;;;;9.63;2.70;;;;;;;15.38;70.30;68482.81;5000924;28;20100;-88
2022/06/14 09:06:07;;;;;;;8.60;2.13;;;;;;;15.39;67.71;68483.38;4985626;28;20046;-88
2022/06/14 09:09:00;;;;;;;9.35;2.08;;;;;;;;;;4961677;28;20039;-88
2022/06/14 09:12:03;;;;;;;7.18;1.90;;;;;;;15.57;67.22;68495.84;4966048;28;20568;-89
2022/06/14 09:14:59;;;;;;;7.95;2.60;;;;;;;15.47;67.28;68495.72;4986449;28;20054;-88
2022/06/14 09:17:37;;;;;;;8.00;2.05;;;;;;;;;;4984033;28;20101;-88
2022/06/14 09:20:19;;;;;;;7.78;2.22;;;;;;;15.26;65.70;68469.13;4994940;28;20038;-87
2022/06/14 09:23:09;;;;;;;7.40;2.65;;;;;;;15.29;65.86;68467.75;4984847;28;20049;-88
2022/06/14 09:25:53;;;;;;;6.07;1.88;;;;;;;;;;4963076;28;20042;-88
2022/06/14 09:28:37;;;;;;;8.27;2.28;;;;;;;;;;4984435;28;20096;-88
2022/06/14 09:31:02;;;;;;;8.70;2.30;;;;;;;;;;4985592;28;20054;-88
2022/06/14 09:33:43;;;;;;;6.70;2.00;;;;;;;16.34;64.73;68581.91;4973855;28;20043;-88
2022/06/14 09:36:27;;;;;;;9.85;2.63;;;;;;;16.21;64.97;68569.75;4967942;28;20294;-88
2022/06/14 09:39:30;;;;;;;5.80;2.00;;;;;;;16.17;64.79;68562.50;4986425;28;20391;-88
2022/06/14 09:42:35;;;;;;;6.38;2.63;;;;;;;16.24;64.71;68573.19;4970744;28;20044;-88
2022/06/14 09:45:25;;;;;;;9.77;2.60;;;;;;;16.23;63.33;68572.03;4984789;28;20046;-89
2022/06/14 09:48:28;;;;;;;6.05;2.10;;;;;;;16.21;61.68;68569.75;4961071;28;20569;-89
2022/06/14 09:51:05;;;;;;;6.35;1.77;;;;;;;;;;4982300;28;20514;-88
2022/06/14 09:53:50;;;;;;;6.20;1.67;;;;;;;;;;4968523;28;20042;-89
2022/06/14 09:56:18;;;;;;;7.05;2.10;;;;;;;;;;4964514;28;20098;-88
2022/06/14 09:59:15;;;;;;;6.55;2.20;;;;;;;16.61;62.34;68614.22;4966768;28;20126;-89
2022/06/14 10:01:59;;;;;;;4.18;1.48;;;;;;;;;;4958847;28;20615;-88
2022/06/14 10:04:30;;;;;;;7.30;2.05;;;;;;;;;;4964767;28;20070;-88
2022/06/14 10:07:05;;;;;;;5.82;2.08;;;;;;;;;;4951283;28;20579;-89
2022/06/14 10:09:56;;;;;;;7.00;1.77;;;;;;;17.41;61.29;68703.78;4973576;28;20035;-88
2022/06/14 10:12:49;;;;;;;5.90;2.10;;;;;;;17.58;60.75;68719.91;4962052;28;20626;-88
2022/06/14 10:15:21;;;;;;;8.75;2.33;;;;;;;;;;4991788;28;20046;-88
2022/06/14 10:18:21;;;;;;;6.78;2.10;;;;;;;17.21;59.10;68681.53;4966755;28;20050;-89
2022/06/14 10:21:00;;;;;;;5.97;1.90;;;;;;;17.09;58.31;68668.41;5003544;28;20065;-88
2022/06/14 10:23:25;;;;;;;7.57;2.17;;;;;;;;;;4964571;28;20042;-88
2022/06/14 10:29:44;;;;;;;3.28;1.63;;;;;;;17.32;58.93;68694.09;4977203;28;20380;-89
2022/06/14 10:32:31;;;;;;;9.30;2.17;;;;;;;17.52;57.86;68715.75;4979030;28;20054;-89
2022/06/14 10:35:19;;;;;;;4.80;1.65;;;;;;;;;;4992468;28;20105;-89
2022/06/14 10:38:06;;;;;;;7.35;2.47;;;;;;;17.43;58.38;68705.47;4982796;28;20198;-88
2022/06/14 10:40:40;;;;;;;5.75;1.80;;;;;;;17.77;59.52;68741.03;4999259;28;20053;-88
2022/06/14 10:43:18;;;;;;;5.90;2.17;;;;;;;17.93;56.35;68761.44;4970085;28;20042;-89
2022/06/14 10:45:46;;;;;;;8.00;1.70;;;;;;;;;;4997258;28;20128;-89
2022/06/14 10:48:34;;;;;;;4.70;1.87;;;;;;;18.17;55.89;68786.13;4966105;28;20062;-89
2022/06/14 10:51:20;;;;;;;5.32;1.80;;;;;;;18.22;57.72;68794.53;4992495;28;20044;-89
2022/06/14 10:54:17;;;;;;;7.93;2.15;;;;;;;18.19;56.99;68791.09;4986082;28;20047;-88
2022/06/14 10:57:07;;;;;;;5.57;1.70;;;;;;;18.32;57.26;68810.19;4971330;28;20053;-89
2022/06/14 11:00:07;;;;;;;5.15;1.85;;;;;;;18.37;55.99;68807.81;4998641;28;20046;-90
2022/06/14 11:03:08;;;;;;;6.18;1.85;;;;;;;17.92;57.00;68760.28;4991578;28;20078;-89
2022/06/14 11:05:33;;;;;;;6.68;2.35;;;;;;;17.72;55.92;68738.59;5016132;23;20136;-79
2022/06/14 11:08:04;;;;;;;6.20;2.15;;;;;;;;;;4990896;28;20165;-76
2022/06/14 11:10:59;;;;;;;10.50;2.50;;;;;;;18.15;55.87;68785.97;4999671;28;20042;-77
2022/06/14 11:13:33;;;;;;;4.88;1.83;;;;;;;18.30;56.50;68800.41;4966314;28;20051;-77
2022/06/14 11:16:16;;;;;;;5.40;2.10;;;;;;;18.43;56.34;68812.53;4994172;28;20038;-76
2022/06/14 11:18:47;;;;;;;6.03;2.00;;;;;;;18.56;53.05;68828.94;4995254;28;20079;-76
2022/06/14 11:21:46;;;;;;;6.93;2.30;;;;;;;18.09;52.93;68785.06;5006526;28;20096;-79
2022/06/14 11:24:14;;;;;;;;;;;;;;;18.32;56.75;68802.09;4995159;28;20046;-77
2022/06/14 11:26:56;;;;;;;4.90;1.83;;;;;;;18.82;55.64;68860.78;5000013;28;19913;-76
2022/06/14 11:29:24;;;;;;;5.75;2.00;;;;;;;;;;4994796;28;20049;-77
2022/06/14 11:31:58;;;;;;;6.30;1.97;;;;;;;18.66;52.73;68843.63;4998762;28;20076;-77
2022/06/14 11:34:56;;;;;;;6.00;2.25;;;;;;;18.75;53.02;68852.78;4993731;28;20046;-76
2022/06/14 11:37:26;;;;;;;6.47;2.08;;;;;;;18.82;53.19;68860.78;4949195;28;20047;-75
2022/06/14 11:40:15;;;;;;;5.85;1.75;;;;;;;18.76;53.77;68853.91;5001618;28;20051;-79
2022/06/14 11:42:50;;;;;;;7.07;2.17;;;;;;;18.76;54.05;68854.50;4990257;28;20034;-77
2022/06/14 11:45:24;;;;;;;6.00;1.88;;;;;;;19.09;54.41;68888.34;5006621;28;20045;-79
2022/06/14 11:48:00;;;;;;;7.80;2.17;;;;;;;18.94;56.51;68871.78;5003133;28;20049;-76
2022/06/14 11:50:47;;;;;;;4.47;2.00;;;;;;;19.16;55.05;68899.03;5007158;28;20112;-77
2022/06/14 11:53:12;;;;;;;6.50;1.98;;;;;;;;;;4999729;28;20065;-76
2022/06/14 11:55:52;;;;;;;7.28;2.28;;;;;;;19.04;54.25;68885.91;5009817;28;20041;-79
2022/06/14 11:58:28;;;;;;;5.13;1.85;;;;;;;19.05;54.06;68887.06;4994799;28;20552;-79
2022/06/14 12:01:28;;;;;;;5.93;1.75;;;;;;;19.04;54.05;68885.91;5004617;28;20042;-78
2022/06/14 12:04:02;;;;;;;5.13;2.00;;;;;;;19.08;53.11;68887.78;4990388;28;20076;-77
2022/06/14 12:06:39;;;;;;;4.00;1.70;;;;;;;19.23;51.42;68906.47;5006722;28;20080;-78
2022/06/14 12:09:04;;;;;;;7.63;2.85;;;;;;;;;;5009154;28;20117;-78
2022/06/14 12:11:35;;;;;;;11.50;2.67;;;;;;;19.00;50.44;68878.06;5006751;28;20145;-78
2022/06/14 12:14:54;;;;;;;5.25;2.08;;;;;;;19.07;52.65;68888.75;5009791;28;20783;-78
2022/06/14 12:17:42;;;;;;;6.95;2.00;;;;;;;19.33;53.00;68917.88;4938659;29;20150;-79
2022/06/14 12:20:14;;;;;;;6.20;2.10;;;;;;;19.92;52.99;68984.19;4993729;28;20045;-77
2022/06/14 12:22:58;;;;;;;5.72;1.92;;;;;;;;;;4964396;28;20413;-78
2022/06/14 12:28:22;;;;;;;4.68;2.05;;;;;;;20.57;51.47;69053.53;5004750;28;20049;-77
2022/06/14 12:30:52;;;;;;;5.32;1.83;;;;;;;20.31;50.59;69027.06;5008426;28;20042;-77
2022/06/14 12:33:29;;;;;;;7.45;1.95;;;;;;;20.56;49.77;69055.09;4998081;28;20042;-79
2022/06/14 12:36:06;;;;;;;5.13;2.33;;;;;;;20.49;51.15;69045.53;5004893;28;20099;-78
2022/06/14 12:38:38;;;;;;;7.70;2.30;;;;;;;20.85;50.37;69088.28;5010179;28;20531;-77
2022/06/14 12:41:10;;;;;;;5.57;1.92;;;;;;;20.75;48.61;69076.28;5006571;28;20060;-78
2022/06/14 12:44:02;;;;;;;5.50;1.98;;;;;;;20.76;48.22;69077.97;5009609;28;20519;-78
2022/06/14 12:46:33;;;;;;;6.20;2.30;;;;;;;20.43;48.32;69038.66;5008323;28;20034;-77
2022/06/14 12:49:03;;;;;;;7.45;2.47;;;;;;;20.09;48.36;68997.09;5011177;28;20508;-79
2022/06/14 12:51:33;;;;;;;10.20;2.47;;;;;;;20.15;49.91;69006.66;5008522;28;20053;-79
2022/06/14 12:54:19;;;;;;;5.32;2.22;;;;;;;20.34;49.90;69027.78;5006594;28;20092;-78
2022/06/14 12:57:11;;;;;;;8.20;2.40;;;;;;;20.55;49.16;69053.97;4996455;28;20049;-79
2022/06/14 12:59:48;;;;;;;6.60;2.35;;;;;;;20.91;47.79;69095.13;4992898;28;20521;-78
2022/06/14 13:02:14;;;;;;;6.93;2.13;;;;;;;20.88;50.77;69097.09;5002208;28;20053;-79
2022/06/14 13:04:48;;;;;;;6.80;2.10;;;;;;;21.15;50.19;69119.31;5010111;28;20060;-79
2022/06/14 13:07:30;;;;;;;8.73;2.55;;;;;;;21.32;48.21;69135.50;5010908;28;20048;-79
2022/06/14 13:10:11;;;;;;;6.53;2.22;;;;;;;21.65;47.41;69177.53;5009099;28;20045;-76
2022/06/14 13:12:57;;;;;;;7.35;1.90;;;;;;;21.75;48.57;69178.16;5006539;28;20129;-77